Time;durP1;ratioP1;P1;durP2;ratioP2;P2;SDS_P1;SDS_P2;PMS_P1;PMS_P2;Temp;Humidity;BMP_temperature;BMP_pressure;BME280_temperature;BME280_humidity;BME280_pressure;Samples;Min_cycle;Max_cycle;Signal;HPM_P1;HPM_P2
2021/07/19 00:01:53;;;;;;;4.47;4.15;;;25.30;67.80;;;;;;4893454;28;92681;-22
2021/07/19 00:04:19;;;;;;;4.47;4.07;;;25.30;67.80;;;;;;4892323;28;92743;-22
2021/07/19 00:06:44;;;;;;;4.88;4.47;;;25.30;67.80;;;;;;4893257;28;93606;-22
2021/07/19 00:09:10;;;;;;;4.68;4.28;;;25.30;67.80;;;;;;4892416;28;94290;-22
2021/07/19 00:11:38;;;;;;;5.18;4.68;;;25.20;67.80;;;;;;4893173;28;93001;-22
2021/07/19 00:14:04;;;;;;;4.95;4.45;;;25.20;67.80;;;;;;4893289;28;93109;-23
2021/07/19 00:16:29;;;;;;;4.80;4.40;;;25.20;67.80;;;;;;4893732;28;93046;-22
2021/07/19 00:18:55;;;;;;;4.53;4.13;;;25.20;67.80;;;;;;4893206;28;93240;-22
2021/07/19 00:21:23;;;;;;;5.47;4.85;;;25.30;67.90;;;;;;4892566;28;93555;-22
2021/07/19 00:23:49;;;;;;;4.55;4.15;;;25.20;67.90;;;;;;4893282;28;92546;-22
2021/07/19 00:26:15;;;;;;;4.43;4.03;;;25.20;67.90;;;;;;4893752;28;92439;-22
2021/07/19 00:28:41;;;;;;;4.47;3.85;;;25.20;67.90;;;;;;4892122;28;93233;-22
2021/07/19 00:31:06;;;;;;;4.70;4.30;;;25.20;67.90;;;;;;4892274;28;92953;-22
2021/07/19 00:33:33;;;;;;;5.30;4.15;;;25.20;68.00;;;;;;4891775;28;94169;-22
2021/07/19 00:35:58;;;;;;;4.57;4.18;;;25.20;68.00;;;;;;4891931;28;92739;-22
2021/07/19 00:38:24;;;;;;;4.50;4.10;;;25.20;68.00;;;;;;4892197;28;93010;-22
2021/07/19 00:40:50;;;;;;;4.20;3.80;;;25.20;68.00;;;;;;4892442;28;92857;-22
2021/07/19 00:43:16;;;;;;;4.38;3.97;;;25.20;68.00;;;;;;4893182;28;93533;-22
2021/07/19 00:45:41;;;;;;;5.03;4.53;;;25.20;68.00;;;;;;4892972;28;93458;-22
2021/07/19 00:48:07;;;;;;;4.78;4.38;;;25.20;68.00;;;;;;4892684;28;93132;-22
2021/07/19 00:50:37;;;;;;;3.85;3.55;;;25.10;67.90;;;;;;4893221;28;93349;-23
2021/07/19 00:53:07;;;;;;;5.30;4.70;;;25.20;68.00;;;;;;4892879;28;92505;-22
2021/07/19 00:55:34;;;;;;;4.68;4.28;;;25.20;68.00;;;;;;4892445;28;93304;-22
2021/07/19 00:58:03;;;;;;;4.45;4.07;;;25.20;68.10;;;;;;4891745;28;94182;-22
2021/07/19 01:00:29;;;;;;;5.00;4.50;;;25.20;68.00;;;;;;4891884;28;93908;-22
2021/07/19 01:02:57;;;;;;;4.63;4.22;;;25.10;68.00;;;;;;4892020;28;93173;-22
2021/07/19 01:05:25;;;;;;;4.50;4.10;;;25.10;68.00;;;;;;4891744;28;92601;-22
2021/07/19 01:07:53;;;;;;;4.78;4.35;;;25.20;68.10;;;;;;4891233;28;93340;-22
2021/07/19 01:10:19;;;;;;;4.72;4.32;;;25.20;68.10;;;;;;4891693;28;94021;-22
2021/07/19 01:12:47;;;;;;;4.63;4.05;;;25.10;68.00;;;;;;4892341;28;92152;-22
2021/07/19 01:15:13;;;;;;;4.70;4.30;;;25.10;68.00;;;;;;4892516;28;92664;-22
2021/07/19 01:17:41;;;;;;;4.40;4.00;;;25.10;68.00;;;;;;4891740;28;92864;-22
2021/07/19 01:20:07;;;;;;;4.90;4.40;;;25.10;68.10;;;;;;4891727;28;93573;-23
2021/07/19 01:23:00;;;;;;;4.28;3.88;;;25.10;68.10;;;;;;4891929;28;94026;-22
2021/07/19 01:25:50;;;;;;;4.72;4.32;;;25.10;68.10;;;;;;4892009;28;92634;-22
2021/07/19 01:28:30;;;;;;;4.45;4.05;;;25.10;68.10;;;;;;4891357;28;93336;-22
2021/07/19 01:30:59;;;;;;;4.38;3.97;;;25.10;68.10;;;;;;4892913;28;93143;-22
2021/07/19 01:33:28;;;;;;;4.55;4.15;;;25.10;68.10;;;;;;4892665;28;93047;-22
2021/07/19 01:35:56;;;;;;;4.20;3.90;;;25.10;68.10;;;;;;4891865;28;92416;-22
2021/07/19 01:38:22;;;;;;;4.72;4.32;;;25.10;68.20;;;;;;4891476;28;92958;-22
2021/07/19 01:40:48;;;;;;;4.57;4.18;;;25.10;68.20;;;;;;4891897;28;92948;-22
2021/07/19 01:43:15;;;;;;;4.60;4.20;;;25.10;68.20;;;;;;4891928;28;93003;-22
2021/07/19 01:45:40;;;;;;;5.30;4.15;;;25.10;68.20;;;;;;4891190;28;92734;-22
2021/07/19 01:48:08;;;;;;;4.22;3.85;;;25.10;68.20;;;;;;4891670;28;94231;-22
2021/07/19 01:50:35;;;;;;;4.50;4.10;;;25.10;68.20;;;;;;4891723;28;93600;-22
2021/07/19 01:53:03;;;;;;;4.18;3.88;;;25.10;68.30;;;;;;4889597;28;93729;-22
2021/07/19 01:55:30;;;;;;;4.10;3.70;;;25.00;68.20;;;;;;4890858;28;93249;-22
2021/07/19 01:57:57;;;;;;;4.45;4.05;;;25.10;68.20;;;;;;4890888;28;93383;-22
2021/07/19 02:00:23;;;;;;;4.55;4.15;;;25.10;68.30;;;;;;4891372;28;93286;-21
2021/07/19 02:02:51;;;;;;;4.25;3.85;;;25.10;68.30;;;;;;4890888;28;93472;-22
2021/07/19 02:05:19;;;;;;;3.85;3.55;;;25.10;68.30;;;;;;4891522;28;92467;-22
2021/07/19 02:07:49;;;;;;;4.03;3.63;;;25.10;68.30;;;;;;4890582;28;93199;-22
2021/07/19 02:10:15;;;;;;;4.53;4.05;;;25.00;68.20;;;;;;4891387;28;92857;-22
2021/07/19 02:12:43;;;;;;;4.55;4.15;;;25.00;68.20;;;;;;4889891;28;93605;-22
2021/07/19 02:15:20;;;;;;;4.22;3.83;;;25.00;68.30;;;;;;4889193;28;93094;-23
2021/07/19 02:17:56;;;;;;;4.45;4.05;;;25.00;68.30;;;;;;4890874;28;93292;-22
2021/07/19 02:20:24;;;;;;;4.32;4.03;;;25.00;68.30;;;;;;4891700;28;92862;-22
2021/07/19 02:22:50;;;;;;;4.70;4.20;;;25.00;68.30;;;;;;4891747;28;92966;-22
2021/07/19 02:25:17;;;;;;;4.03;3.72;;;24.90;68.20;;;;;;4891347;28;92459;-22
2021/07/19 02:27:45;;;;;;;4.50;4.10;;;25.00;68.30;;;;;;4891083;28;93113;-22
2021/07/19 02:30:13;;;;;;;4.38;3.97;;;25.00;68.30;;;;;;4890965;28;92660;-22
2021/07/19 02:32:45;;;;;;;4.43;4.03;;;25.00;68.30;;;;;;4889792;28;92930;-22
2021/07/19 02:35:13;;;;;;;4.60;4.20;;;25.00;68.30;;;;;;4889932;28;92386;-22
2021/07/19 02:37:41;;;;;;;3.97;3.67;;;25.00;68.30;;;;;;4889643;28;93870;-22
2021/07/19 02:40:08;;;;;;;4.20;3.80;;;25.00;68.30;;;;;;4890899;28;93303;-22
2021/07/19 02:42:36;;;;;;;4.22;3.83;;;25.00;68.90;;;;;;4891308;28;92258;-23
2021/07/19 02:45:06;;;;;;;4.40;4.10;;;25.00;68.30;;;;;;4890615;28;92732;-22
2021/07/19 02:47:32;;;;;;;4.15;3.75;;;25.00;68.40;;;;;;4889719;28;93304;-22
2021/07/19 02:49:59;;;;;;;4.43;4.03;;;25.00;68.40;;;;;;4888593;28;93824;-22
2021/07/19 02:52:24;;;;;;;4.00;3.60;;;25.00;68.40;;;;;;4890719;28;93013;-22
2021/07/19 02:54:51;;;;;;;4.63;4.18;;;25.00;68.40;;;;;;4890610;28;92211;-22
2021/07/19 02:57:17;;;;;;;4.03;3.72;;;25.00;68.30;;;;;;4889824;28;93319;-22
2021/07/19 02:59:43;;;;;;;4.05;3.67;;;25.00;68.40;;;;;;4890087;28;92923;-22
2021/07/19 03:02:11;;;;;;;4.00;3.58;;;24.90;68.30;;;;;;4889628;28;94512;-22
2021/07/19 03:04:40;;;;;;;4.53;4.13;;;24.90;68.30;;;;;;4890341;28;93321;-22
2021/07/19 03:07:06;;;;;;;4.95;4.45;;;24.90;68.30;;;;;;4890697;28;93346;-22
2021/07/19 03:09:33;;;;;;;4.07;3.78;;;24.90;68.30;;;;;;4890615;28;93570;-22
2021/07/19 03:12:01;;;;;;;4.38;3.97;;;24.90;68.30;;;;;;4889856;28;92187;-22
2021/07/19 03:14:30;;;;;;;4.22;3.83;;;24.90;68.30;;;;;;4889898;28;92758;-22
2021/07/19 03:16:56;;;;;;;4.38;4.05;;;24.90;68.40;;;;;;4890503;28;93303;-22
2021/07/19 03:19:23;;;;;;;3.97;3.67;;;24.90;68.40;;;;;;4893315;28;92483;-23
2021/07/19 03:21:53;;;;;;;4.45;4.05;;;24.90;68.40;;;;;;4893691;28;92911;-21
2021/07/19 03:24:21;;;;;;;4.38;3.97;;;24.90;68.40;;;;;;4893444;28;92864;-22
2021/07/19 03:26:48;;;;;;;4.20;3.80;;;24.90;68.40;;;;;;4892175;28;94376;-22
2021/07/19 03:29:16;;;;;;;4.38;3.97;;;24.90;68.40;;;;;;4893148;28;93577;-22
2021/07/19 03:31:42;;;;;;;4.85;4.03;;;24.90;68.40;;;;;;4893728;28;92158;-22
2021/07/19 03:34:11;;;;;;;4.38;3.95;;;24.90;68.40;;;;;;4891346;28;92422;-22
2021/07/19 03:36:37;;;;;;;4.25;3.85;;;24.90;68.40;;;;;;4893272;28;93545;-23
2021/07/19 03:39:05;;;;;;;4.45;4.05;;;24.90;68.40;;;;;;4893158;28;95163;-23
2021/07/19 03:41:31;;;;;;;4.03;3.72;;;24.90;68.40;;;;;;4892010;28;93185;-22
2021/07/19 03:43:58;;;;;;;3.83;3.53;;;24.90;68.40;;;;;;4893662;28;92350;-22
2021/07/19 03:46:24;;;;;;;4.25;3.85;;;24.90;68.40;;;;;;4893443;28;92791;-22
2021/07/19 03:48:51;;;;;;;4.32;3.92;;;24.90;68.40;;;;;;4893310;28;95582;-23
2021/07/19 03:51:17;;;;;;;4.30;4.00;;;24.90;68.50;;;;;;4893038;28;94180;-22
2021/07/19 03:53:43;;;;;;;4.55;4.15;;;24.90;68.50;;;;;;4893072;28;92728;-22
2021/07/19 03:56:09;;;;;;;3.53;3.22;;;24.90;68.50;;;;;;4893402;28;92942;-23
2021/07/19 03:58:36;;;;;;;4.18;3.88;;;24.90;68.50;;;;;;4893744;28;92968;-22
2021/07/19 04:01:04;;;;;;;3.95;3.55;;;24.90;68.50;;;;;;4893370;28;92901;-22
2021/07/19 04:03:44;;;;;;;4.63;4.22;;;24.90;68.50;;;;;;4893251;28;93549;-22
2021/07/19 04:06:22;;;;;;;4.15;3.75;;;24.90;68.50;;;;;;4892677;28;94238;-22
2021/07/19 04:08:48;;;;;;;3.92;3.63;;;24.90;68.50;;;;;;4893384;28;93024;-23
2021/07/19 04:11:19;;;;;;;4.03;3.60;;;24.80;68.50;;;;;;4892543;28;92226;-22
2021/07/19 04:13:45;;;;;;;4.03;3.70;;;24.80;68.50;;;;;;4891795;28;93671;-22
2021/07/19 04:16:20;;;;;;;4.07;3.78;;;24.80;68.50;;;;;;4892723;28;93798;-23
2021/07/19 04:18:50;;;;;;;4.35;3.97;;;24.80;68.50;;;;;;4893092;28;93811;-22
2021/07/19 04:21:16;;;;;;;4.32;3.92;;;24.80;68.50;;;;;;4891994;28;93709;-22
2021/07/19 04:23:42;;;;;;;4.03;3.72;;;24.80;68.50;;;;;;4893324;28;92584;-22
2021/07/19 04:26:11;;;;;;;3.47;3.17;;;24.80;68.50;;;;;;4893126;28;92626;-22
2021/07/19 04:28:39;;;;;;;3.70;3.40;;;24.80;68.50;;;;;;4892586;28;94109;-22
2021/07/19 04:31:04;;;;;;;4.30;3.90;;;24.80;68.50;;;;;;4892323;28;92565;-22
2021/07/19 04:33:30;;;;;;;4.15;3.83;;;24.80;68.50;;;;;;4892723;28;92042;-22
2021/07/19 04:35:56;;;;;;;4.40;4.00;;;24.80;68.50;;;;;;4892436;28;93626;-22
2021/07/19 04:38:23;;;;;;;3.67;3.38;;;24.80;68.50;;;;;;4891887;28;92924;-23
2021/07/19 04:40:50;;;;;;;4.20;3.90;;;24.80;68.50;;;;;;4892391;28;94307;-22
2021/07/19 04:43:17;;;;;;;3.58;3.28;;;24.80;68.50;;;;;;4892781;28;92885;-22
2021/07/19 04:45:45;;;;;;;4.43;4.03;;;24.80;68.50;;;;;;4892323;28;93146;-22
2021/07/19 04:48:12;;;;;;;3.72;3.42;;;24.80;68.50;;;;;;4892143;28;93208;-22
2021/07/19 04:50:37;;;;;;;4.63;4.22;;;24.90;68.60;;;;;;4892858;28;92990;-22
2021/07/19 04:53:03;;;;;;;3.88;3.58;;;24.80;68.50;;;;;;4892726;28;92526;-22
2021/07/19 04:55:31;;;;;;;3.78;3.47;;;24.80;68.50;;;;;;4890996;28;93476;-22
2021/07/19 04:57:58;;;;;;;4.18;3.80;;;24.90;68.60;;;;;;4891551;28;92867;-22
2021/07/19 05:00:25;;;;;;;4.32;3.92;;;24.90;68.50;;;;;;4892413;28;92203;-22
2021/07/19 05:02:52;;;;;;;5.05;3.97;;;24.90;68.50;;;;;;4892228;28;92955;-22
2021/07/19 05:05:20;;;;;;;3.80;3.50;;;24.90;68.50;;;;;;4891768;28;94390;-22
2021/07/19 05:07:47;;;;;;;3.80;3.50;;;24.90;68.40;;;;;;4892296;28;93729;-22
2021/07/19 05:10:15;;;;;;;4.00;3.63;;;24.90;68.30;;;;;;4891870;28;92483;-22
2021/07/19 05:12:44;;;;;;;3.72;3.42;;;25.00;68.40;;;;;;4890751;28;92738;-22
2021/07/19 05:15:14;;;;;;;3.42;3.13;;;25.00;68.30;;;;;;4890839;28;93329;-22
2021/07/19 05:17:41;;;;;;;3.95;3.65;;;25.00;68.30;;;;;;4891701;28;93462;-23
2021/07/19 05:20:25;;;;;;;4.25;3.90;;;25.00;68.40;;;;;;4892183;28;92200;-22
2021/07/19 05:22:53;;;;;;;4.35;3.95;;;25.00;68.30;;;;;;4892825;28;91907;-22
2021/07/19 05:25:30;;;;;;;4.03;3.72;;;25.00;68.40;;;;;;4892191;28;93189;-22
2021/07/19 05:27:58;;;;;;;4.00;3.70;;;25.00;68.50;;;;;;4890589;28;93134;-22
2021/07/19 05:30:24;;;;;;;4.28;3.85;;;25.10;68.40;;;;;;4891648;28;93226;-22
2021/07/19 05:32:50;;;;;;;4.82;4.10;;;25.00;67.80;;;;;;4892207;28;93477;-22
2021/07/19 05:35:17;;;;;;;4.82;4.32;;;25.00;67.30;;;;;;4891447;28;93295;-23
2021/07/19 05:37:43;;;;;;;6.93;4.53;;;25.10;66.70;;;;;;4890254;28;93147;-22
2021/07/19 05:40:09;;;;;;;7.45;4.18;;;25.00;66.30;;;;;;4891564;28;93140;-23
2021/07/19 05:42:35;;;;;;;7.55;4.20;;;25.00;66.10;;;;;;4891021;28;93555;-22
2021/07/19 05:45:00;;;;;;;5.25;4.20;;;25.00;65.70;;;;;;4891602;28;92815;-22
2021/07/19 05:47:26;;;;;;;7.13;4.43;;;25.00;65.80;;;;;;4891792;28;93546;-22
2021/07/19 05:49:51;;;;;;;8.80;4.35;;;25.00;65.70;;;;;;4891921;28;92166;-22
2021/07/19 05:52:17;;;;;;;7.78;4.90;;;25.00;65.70;;;;;;4891088;28;92550;-23
2021/07/19 05:54:42;;;;;;;7.50;4.43;;;25.00;65.60;;;;;;4891338;28;94389;-22
2021/07/19 05:57:08;;;;;;;5.53;3.97;;;25.00;65.40;;;;;;4889954;28;94334;-22
2021/07/19 05:59:34;;;;;;;5.88;4.43;;;25.00;65.30;;;;;;4891590;28;92313;-22
2021/07/19 06:01:59;;;;;;;5.60;3.95;;;25.00;65.10;;;;;;4892031;28;92972;-22
2021/07/19 06:04:25;;;;;;;6.32;3.85;;;25.00;65.00;;;;;;4890982;28;93194;-24
2021/07/19 06:06:51;;;;;;;5.68;3.92;;;25.00;64.70;;;;;;4891133;28;92939;-23
2021/07/19 06:09:16;;;;;;;7.65;4.32;;;25.10;64.90;;;;;;4891215;28;93135;-22
2021/07/19 06:11:42;;;;;;;7.85;4.13;;;25.00;64.40;;;;;;4891465;28;92619;-22
2021/07/19 06:14:08;;;;;;;8.35;4.32;;;25.00;64.10;;;;;;4891279;28;93261;-22
2021/07/19 06:16:33;;;;;;;8.50;4.28;;;25.00;64.00;;;;;;4890892;28;92834;-22
2021/07/19 06:18:59;;;;;;;6.95;4.07;;;25.00;64.00;;;;;;4891012;28;93515;-22
2021/07/19 06:21:24;;;;;;;10.45;4.18;;;25.00;63.80;;;;;;4891515;28;93199;-23
2021/07/19 06:23:50;;;;;;;9.60;4.18;;;25.00;63.60;;;;;;4890625;28;93366;-22
2021/07/19 06:26:16;;;;;;;10.20;4.20;;;25.00;63.60;;;;;;4890697;28;93875;-21
2021/07/19 06:28:41;;;;;;;16.70;6.35;;;25.10;63.90;;;;;;4891567;28;92078;-22
2021/07/19 06:31:07;;;;;;;20.48;6.70;;;25.10;64.00;;;;;;4890609;28;93112;-22
2021/07/19 06:33:32;;;;;;;18.13;6.72;;;25.10;64.00;;;;;;4890515;28;93187;-22
2021/07/19 06:35:58;;;;;;;21.55;7.25;;;25.10;64.00;;;;;;4890919;28;92439;-21
2021/07/19 06:38:24;;;;;;;24.55;7.05;;;25.10;63.60;;;;;;4892867;28;92704;-22
2021/07/19 06:40:49;;;;;;;17.55;6.88;;;25.10;63.00;;;;;;4890002;28;93150;-22
2021/07/19 06:43:15;;;;;;;64.85;17.90;;;25.10;62.80;;;;;;4889081;28;93896;-19
2021/07/19 06:45:40;;;;;;;48.75;15.20;;;25.10;62.90;;;;;;4866447;28;93372;-23
2021/07/19 06:48:06;;;;;;;31.20;9.65;;;25.10;62.70;;;;;;4920597;28;92582;-23
2021/07/19 06:50:32;;;;;;;32.28;9.45;;;25.10;62.70;;;;;;4907176;28;93009;-23
2021/07/19 06:52:57;;;;;;;26.65;8.32;;;25.10;62.40;;;;;;4907912;28;93746;-23
2021/07/19 06:55:23;;;;;;;27.98;9.15;;;25.10;62.80;;;;;;4909116;28;92696;-23
2021/07/19 06:57:48;;;;;;;21.08;8.02;;;25.10;62.50;;;;;;4909393;28;92131;-23
2021/07/19 07:00:14;;;;;;;17.75;6.28;;;25.10;62.50;;;;;;4909406;28;92223;-23
2021/07/19 07:02:40;;;;;;;14.10;6.15;;;25.10;62.30;;;;;;4909038;28;93303;-23
2021/07/19 07:05:06;;;;;;;11.55;5.47;;;25.10;62.10;;;;;;4899743;28;93266;-20
2021/07/19 07:07:32;;;;;;;13.00;5.22;;;25.10;62.40;;;;;;4906134;28;93039;-20
2021/07/19 07:09:57;;;;;;;14.45;5.60;;;25.20;62.40;;;;;;4908615;28;92958;-20
2021/07/19 07:12:31;;;;;;;10.77;5.45;;;25.20;62.20;;;;;;4908290;28;92700;-21
2021/07/19 07:14:58;;;;;;;10.13;5.18;;;25.20;62.00;;;;;;4907242;28;93002;-21
2021/07/19 07:17:23;;;;;;;8.27;4.80;;;25.20;61.90;;;;;;4908942;28;92589;-20
2021/07/19 07:19:51;;;;;;;13.23;4.72;;;25.20;61.70;;;;;;4908548;28;92556;-20
2021/07/19 07:22:16;;;;;;;9.85;4.15;;;25.20;61.60;;;;;;4909021;28;93354;-20
2021/07/19 07:24:42;;;;;;;8.57;4.78;;;25.20;61.40;;;;;;4909547;28;94262;-19
2021/07/19 07:27:09;;;;;;;9.68;4.85;;;25.20;61.20;;;;;;4907676;28;92764;-20
2021/07/19 07:29:35;;;;;;;10.40;4.75;;;25.20;61.30;;;;;;4909582;28;93296;-20
2021/07/19 07:32:01;;;;;;;10.15;4.30;;;25.30;61.50;;;;;;4908147;28;94142;-20
2021/07/19 07:34:26;;;;;;;10.77;5.22;;;25.30;61.50;;;;;;4907762;28;93824;-20
2021/07/19 07:36:52;;;;;;;6.85;4.30;;;25.30;61.30;;;;;;4908959;28;92261;-20
2021/07/19 07:39:17;;;;;;;7.63;4.63;;;25.30;61.30;;;;;;4912630;28;93332;-20
2021/07/19 07:41:43;;;;;;;8.10;4.20;;;25.30;61.40;;;;;;4910629;28;93102;-20
2021/07/19 07:44:10;;;;;;;9.68;4.00;;;25.30;61.40;;;;;;4912767;28;92979;-20
2021/07/19 07:46:36;;;;;;;7.75;4.53;;;25.30;61.40;;;;;;4912703;28;92117;-20
2021/07/19 07:49:02;;;;;;;10.10;4.85;;;25.30;61.40;;;;;;4908823;28;92739;-20
2021/07/19 07:51:28;;;;;;;8.10;4.25;;;25.30;61.50;;;;;;4909600;28;92499;-20
2021/07/19 07:53:54;;;;;;;8.80;4.30;;;25.30;61.30;;;;;;4909017;28;92874;-20
2021/07/19 07:56:19;;;;;;;6.68;4.13;;;25.30;61.30;;;;;;4909078;28;94157;-20
2021/07/19 07:58:45;;;;;;;8.52;4.47;;;25.40;61.40;;;;;;4908402;28;93050;-20
2021/07/19 08:01:11;;;;;;;7.78;4.55;;;25.30;61.30;;;;;;4907810;28;93542;-20
2021/07/19 08:03:36;;;;;;;10.10;4.53;;;25.30;61.30;;;;;;4908449;28;93408;-20
2021/07/19 08:06:02;;;;;;;11.32;4.55;;;25.40;61.30;;;;;;4908572;28;93262;-20
2021/07/19 08:08:28;;;;;;;7.53;4.18;;;25.30;60.90;;;;;;4909492;28;92526;-20
2021/07/19 08:10:53;;;;;;;7.25;4.65;;;25.30;60.00;;;;;;4910969;28;93323;-22
2021/07/19 08:13:19;;;;;;;10.82;4.95;;;25.30;59.80;;;;;;4908926;28;93031;-23
2021/07/19 08:15:47;;;;;;;14.00;5.82;;;25.30;59.20;;;;;;4910711;28;93145;-23
2021/07/19 08:18:14;;;;;;;10.35;5.10;;;25.30;58.90;;;;;;4909876;28;92314;-24
2021/07/19 08:20:41;;;;;;;7.80;5.35;;;25.30;58.50;;;;;;4908364;28;96823;-23
2021/07/19 08:23:07;;;;;;;7.80;5.18;;;25.20;58.50;;;;;;4911504;28;94283;-23
2021/07/19 08:25:33;;;;;;;10.05;5.50;;;25.20;58.40;;;;;;4911037;28;92496;-24
2021/07/19 08:27:58;;;;;;;8.23;5.55;;;25.20;58.30;;;;;;4911345;28;92812;-23
2021/07/19 08:30:24;;;;;;;9.68;5.53;;;25.20;58.50;;;;;;4911310;28;93437;-23
2021/07/19 08:32:51;;;;;;;10.20;5.47;;;25.20;58.40;;;;;;4910814;28;92818;-23
2021/07/19 08:35:17;;;;;;;10.35;5.20;;;25.20;58.20;;;;;;4909361;28;93129;-23
2021/07/19 08:37:46;;;;;;;8.27;5.18;;;25.20;58.20;;;;;;4910297;28;92885;-27
2021/07/19 08:40:20;;;;;;;7.75;4.78;;;25.20;58.10;;;;;;4910648;28;94826;-23
2021/07/19 08:42:45;;;;;;;7.38;5.20;;;25.20;58.30;;;;;;4910332;28;92768;-23
2021/07/19 08:45:12;;;;;;;8.52;5.43;;;25.20;58.20;;;;;;4909993;28;94291;-23
2021/07/19 08:47:39;;;;;;;6.20;4.70;;;25.20;58.00;;;;;;4909450;28;93132;-22
2021/07/19 08:50:07;;;;;;;10.18;5.53;;;25.20;58.00;;;;;;4909541;28;93756;-23
2021/07/19 08:52:33;;;;;;;6.30;4.88;;;25.20;58.00;;;;;;4909849;28;92621;-22
2021/07/19 08:54:59;;;;;;;8.32;5.05;;;25.20;58.10;;;;;;4910066;28;92685;-22
2021/07/19 08:57:26;;;;;;;9.23;4.78;;;25.20;58.20;;;;;;4908664;28;93139;-23
2021/07/19 08:59:53;;;;;;;8.63;5.32;;;25.30;58.10;;;;;;4909669;28;93087;-22
2021/07/19 09:02:18;;;;;;;7.53;5.53;;;25.30;58.10;;;;;;4911244;28;92904;-23
2021/07/19 09:04:44;;;;;;;8.35;5.75;;;25.20;58.00;;;;;;4911345;28;93357;-22
2021/07/19 09:07:11;;;;;;;8.40;5.55;;;25.20;58.00;;;;;;4910742;28;92717;-23
2021/07/19 09:09:37;;;;;;;10.45;5.57;;;25.20;58.20;;;;;;4909217;28;95501;-23
2021/07/19 09:12:05;;;;;;;8.30;5.13;;;25.20;58.00;;;;;;4942114;22;94557;-20
2021/07/19 09:14:31;;;;;;;9.15;4.97;;;25.20;57.60;;;;;;4911014;28;92980;-20
2021/07/19 09:16:58;;;;;;;7.38;5.18;;;25.20;57.90;;;;;;4911081;28;92821;-21
2021/07/19 09:19:26;;;;;;;10.35;5.35;;;25.20;57.90;;;;;;4910865;28;92722;-20
2021/07/19 09:21:59;;;;;;;9.48;5.07;;;25.20;57.90;;;;;;4910879;28;92981;-20
2021/07/19 09:24:30;;;;;;;5.43;4.38;;;25.20;57.90;;;;;;4909621;28;93197;-21
2021/07/19 09:26:56;;;;;;;9.13;5.60;;;25.20;58.10;;;;;;4911074;28;91351;-21
2021/07/19 09:29:24;;;;;;;8.70;5.55;;;25.20;58.10;;;;;;4910668;28;93120;-20
2021/07/19 09:32:00;;;;;;;6.82;5.25;;;25.20;58.20;;;;;;4910845;28;93513;-21
2021/07/19 09:34:27;;;;;;;7.13;5.47;;;25.20;58.00;;;;;;4909493;28;93622;-21
2021/07/19 09:37:05;;;;;;;6.53;5.10;;;25.20;58.10;;;;;;4911334;28;92672;-22
2021/07/19 09:39:50;;;;;;;7.47;5.53;;;25.20;58.10;;;;;;4910185;28;92301;-20
2021/07/19 09:42:17;;;;;;;7.97;5.60;;;25.20;58.00;;;;;;4910577;28;92993;-21
2021/07/19 09:44:52;;;;;;;9.68;6.25;;;25.20;57.70;;;;;;4915482;28;92963;-20
2021/07/19 09:47:18;;;;;;;7.40;5.82;;;25.20;57.60;;;;;;4930664;28;92753;-21
2021/07/19 09:49:44;;;;;;;8.75;5.95;;;25.20;57.50;;;;;;4918138;28;92718;-21
2021/07/19 09:52:12;;;;;;;8.35;5.72;;;25.20;57.60;;;;;;4910988;28;92858;-20
2021/07/19 09:54:45;;;;;;;11.18;6.03;;;25.20;57.70;;;;;;4910970;28;92208;-22
2021/07/19 09:57:11;;;;;;;;;;;25.20;57.80;;;;;;4910602;28;92783;-21
2021/07/19 09:59:56;;;;;;;9.65;6.20;;;25.20;57.90;;;;;;4911088;28;94165;-21
2021/07/19 10:02:38;;;;;;;9.07;6.53;;;25.20;57.80;;;;;;4910711;28;92631;-21
2021/07/19 10:05:10;;;;;;;8.55;5.90;;;25.20;57.60;;;;;;4910344;28;92995;-21
2021/07/19 10:07:46;;;;;;;8.40;6.63;;;25.20;57.50;;;;;;4910235;28;93296;-20
2021/07/19 10:10:12;;;;;;;9.35;6.28;;;25.20;57.50;;;;;;4910022;28;93340;-21
2021/07/19 10:12:37;;;;;;;8.32;6.45;;;25.20;57.50;;;;;;4909778;28;92645;-21
2021/07/19 10:15:07;;;;;;;9.80;7.20;;;25.20;57.40;;;;;;4910500;28;92587;-20
2021/07/19 10:17:34;;;;;;;10.35;7.00;;;25.20;57.30;;;;;;4910757;28;92045;-21
2021/07/19 10:20:00;;;;;;;9.93;6.38;;;25.20;57.40;;;;;;4909447;28;94514;-21
2021/07/19 10:22:26;;;;;;;8.48;6.50;;;25.20;57.30;;;;;;4909911;28;93121;-21
2021/07/19 10:24:53;;;;;;;9.65;6.43;;;25.20;57.50;;;;;;4909908;28;94113;-21
2021/07/19 10:27:21;;;;;;;10.05;6.90;;;25.20;57.50;;;;;;4909551;28;92357;-20
2021/07/19 10:29:49;;;;;;;9.52;6.65;;;25.20;57.40;;;;;;4909117;28;93168;-23
2021/07/19 10:32:21;;;;;;;9.95;6.25;;;25.20;57.30;;;;;;4908854;28;92771;-22
2021/07/19 10:34:50;;;;;;;9.10;6.82;;;25.20;57.30;;;;;;4910518;28;92882;-21
2021/07/19 10:37:21;;;;;;;8.32;6.40;;;25.20;57.30;;;;;;4910335;28;92149;-21
2021/07/19 10:39:51;;;;;;;10.15;6.78;;;25.20;57.40;;;;;;4908576;28;94656;-21
2021/07/19 10:42:17;;;;;;;9.07;6.07;;;25.20;57.40;;;;;;4910213;28;92462;-21
2021/07/19 10:44:43;;;;;;;9.13;6.55;;;25.30;57.50;;;;;;4911266;28;92241;-21
2021/07/19 10:47:16;;;;;;;9.05;6.55;;;25.30;57.50;;;;;;4910455;28;92264;-20
2021/07/19 10:49:58;;;;;;;11.02;7.13;;;25.30;57.60;;;;;;4906780;28;95697;-21
2021/07/19 10:52:30;;;;;;;9.25;7.00;;;25.30;57.60;;;;;;4908989;28;93343;-20
2021/07/19 10:54:58;;;;;;;9.63;6.78;;;25.30;57.70;;;;;;4909509;28;93147;-20
2021/07/19 10:57:46;;;;;;;9.82;7.25;;;25.30;57.70;;;;;;4909683;28;93297;-21
2021/07/19 11:00:19;;;;;;;10.07;6.88;;;25.30;57.80;;;;;;4910134;28;94413;-21
2021/07/19 11:02:45;;;;;;;8.63;6.60;;;25.30;57.90;;;;;;4909955;28;92921;-21
2021/07/19 11:05:15;;;;;;;7.80;6.80;;;25.30;58.00;;;;;;4910321;28;93041;-21
2021/07/19 11:07:42;;;;;;;8.98;6.78;;;25.30;58.10;;;;;;4910321;28;91434;-20
2021/07/19 11:10:22;;;;;;;10.68;7.35;;;25.30;58.20;;;;;;4910186;28;93164;-20
2021/07/19 11:12:52;;;;;;;11.52;6.78;;;25.30;58.20;;;;;;4909262;28;92950;-21
2021/07/19 11:15:21;;;;;;;9.20;7.20;;;25.30;58.30;;;;;;4908748;28;94329;-21
2021/07/19 11:17:48;;;;;;;9.27;7.40;;;25.30;58.30;;;;;;4909087;28;92710;-21
2021/07/19 11:20:15;;;;;;;9.45;7.07;;;25.30;58.40;;;;;;4908997;28;93165;-21
2021/07/19 11:22:42;;;;;;;9.40;7.05;;;25.30;58.50;;;;;;4909068;28;95377;-20
2021/07/19 11:25:12;;;;;;;10.77;7.35;;;25.30;58.60;;;;;;4909441;28;92205;-22
2021/07/19 11:27:43;;;;;;;9.13;7.60;;;25.30;58.60;;;;;;4909655;28;92172;-21
2021/07/19 11:30:22;;;;;;;8.55;6.55;;;25.30;58.70;;;;;;4910049;28;93351;-21
2021/07/19 11:32:48;;;;;;;9.63;7.72;;;25.30;58.80;;;;;;4910029;28;93290;-21
2021/07/19 11:35:16;;;;;;;10.38;7.75;;;25.30;58.80;;;;;;4909754;28;93477;-21
2021/07/19 11:37:47;;;;;;;8.88;7.45;;;25.30;58.90;;;;;;4909669;28;92278;-22
2021/07/19 11:40:26;;;;;;;9.48;7.53;;;25.20;58.80;;;;;;4911003;28;94125;-22
2021/07/19 11:42:52;;;;;;;8.88;6.97;;;25.30;58.90;;;;;;4912269;28;93857;-20
2021/07/19 11:45:19;;;;;;;8.90;7.30;;;25.30;58.90;;;;;;4912491;28;93340;-21
2021/07/19 11:47:47;;;;;;;8.77;6.95;;;25.30;58.90;;;;;;4912935;28;92709;-21
2021/07/19 11:50:18;;;;;;;8.50;7.30;;;25.30;58.80;;;;;;4912406;28;92747;-20
2021/07/19 11:52:45;;;;;;;9.43;7.68;;;25.30;58.80;;;;;;4912419;28;92980;-21
2021/07/19 11:55:14;;;;;;;9.77;7.78;;;25.30;58.80;;;;;;4913386;28;92718;-21
2021/07/19 11:57:42;;;;;;;9.55;7.53;;;25.30;58.70;;;;;;4912738;28;92216;-22
2021/07/19 12:00:08;;;;;;;8.38;7.10;;;25.30;58.70;;;;;;4912921;28;93125;-22
2021/07/19 12:02:34;;;;;;;8.85;6.97;;;25.30;58.70;;;;;;4912839;28;94805;-21
2021/07/19 12:04:59;;;;;;;9.43;7.88;;;25.30;58.50;;;;;;4912712;28;94034;-21
2021/07/19 12:07:26;;;;;;;9.60;7.63;;;25.30;58.40;;;;;;4912821;28;92196;-20
2021/07/19 12:10:02;;;;;;;10.23;7.75;;;25.30;58.40;;;;;;4911815;28;93498;-21
2021/07/19 12:12:28;;;;;;;10.23;7.70;;;25.30;58.30;;;;;;4911506;28;92811;-21
2021/07/19 12:14:58;;;;;;;10.23;7.55;;;25.30;58.30;;;;;;4912784;28;93241;-20
2021/07/19 12:17:33;;;;;;;9.63;8.27;;;25.30;58.30;;;;;;4912773;28;92749;-20
2021/07/19 12:19:58;;;;;;;8.57;7.57;;;25.30;58.20;;;;;;4910542;28;93518;-20
2021/07/19 12:22:24;;;;;;;9.60;7.88;;;25.30;58.30;;;;;;4912432;28;93506;-20
2021/07/19 12:24:56;;;;;;;8.48;7.40;;;25.40;58.40;;;;;;4912107;28;93073;-21
2021/07/19 12:27:22;;;;;;;11.80;8.45;;;25.40;58.40;;;;;;4912087;28;92958;-21
2021/07/19 12:29:50;;;;;;;9.73;7.90;;;25.30;58.20;;;;;;4911042;28;94622;-21
2021/07/19 12:32:16;;;;;;;9.93;8.18;;;25.40;58.40;;;;;;4911605;28;93281;-21
2021/07/19 12:34:45;;;;;;;9.77;8.18;;;25.40;58.40;;;;;;4912908;28;93494;-21
2021/07/19 12:37:14;;;;;;;11.07;8.60;;;25.30;58.40;;;;;;4912490;28;92941;-21
2021/07/19 12:39:52;;;;;;;9.32;7.90;;;25.40;58.50;;;;;;4910280;28;96102;-21
2021/07/19 12:42:32;;;;;;;8.88;7.50;;;25.40;58.70;;;;;;4911574;28;94754;-21
2021/07/19 12:44:59;;;;;;;9.20;7.30;;;25.40;58.50;;;;;;4912262;28;92111;-20
2021/07/19 12:47:28;;;;;;;10.05;7.55;;;25.40;58.50;;;;;;4912342;28;91437;-21
2021/07/19 12:49:54;;;;;;;14.07;7.88;;;25.40;58.50;;;;;;4911888;28;93233;-21